sensor_id;sensor_type;location;lat;lon;timestamp;pressure;altitude;pressure_sealevel;temperature;humidity
63006;BME280;53704;52.532;6.426;2023-03-14T00:02:02;98771.22;;;9.35;100.00
63006;BME280;53704;52.532;6.426;2023-03-14T00:04:27;98774.31;;;9.39;100.00
63006;BME280;53704;52.532;6.426;2023-03-14T00:06:53;98773.28;;;9.33;100.00
63006;BME280;53704;52.532;6.426;2023-03-14T00:09:18;98772.44;;;9.26;100.00
63006;BME280;53704;52.532;6.426;2023-03-14T00:11:44;98771.22;;;9.29;100.00
63006;BME280;53704;52.532;6.426;2023-03-14T00:14:09;98767.06;;;9.19;100.00
63006;BME280;53704;52.532;6.426;2023-03-14T00:16:35;98775.34;;;9.18;100.00
63006;BME280;53704;52.532;6.426;2023-03-14T00:19:00;98781.94;;;9.09;100.00
63006;BME280;53704;52.532;6.426;2023-03-14T00:21:27;98783.59;;;9.03;100.00
63006;BME280;53704;52.532;6.426;2023-03-14T00:23:52;98786.84;;;8.85;100.00
63006;BME280;53704;52.532;6.426;2023-03-14T00:26:19;98777.09;;;8.71;100.00
63006;BME280;53704;52.532;6.426;2023-03-14T00:28:46;98772.38;;;8.79;100.00
63006;BME280;53704;52.532;6.426;2023-03-14T00:31:14;98754.63;;;8.85;100.00
63006;BME280;53704;52.532;6.426;2023-03-14T00:33:40;98751.16;;;9.11;100.00
63006;BME280;53704;52.532;6.426;2023-03-14T00:36:08;98743.31;;;9.23;100.00
63006;BME280;53704;52.532;6.426;2023-03-14T00:38:35;98749.50;;;9.03;100.00
63006;BME280;53704;52.532;6.426;2023-03-14T00:41:06;98756.09;;;9.01;100.00
63006;BME280;53704;52.532;6.426;2023-03-14T00:43:32;98771.19;;;9.09;100.00
63006;BME280;53704;52.532;6.426;2023-03-14T00:45:58;98778.56;;;8.86;100.00
63006;BME280;53704;52.532;6.426;2023-03-14T00:48:23;98772.41;;;8.86;100.00
63006;BME280;53704;52.532;6.426;2023-03-14T00:50:49;98762.84;;;8.63;100.00
63006;BME280;53704;52.532;6.426;2023-03-14T00:53:15;98770.06;;;8.63;100.00
63006;BME280;53704;52.532;6.426;2023-03-14T00:55:42;98756.44;;;8.64;100.00
63006;BME280;53704;52.532;6.426;2023-03-14T00:58:08;98757.69;;;8.68;100.00
63006;BME280;53704;52.532;6.426;2023-03-14T01:00:34;98759.94;;;8.65;100.00
63006;BME280;53704;52.532;6.426;2023-03-14T01:03:00;98765.50;;;8.57;100.00
63006;BME280;53704;52.532;6.426;2023-03-14T01:05:25;98763.25;;;8.60;100.00
63006;BME280;53704;52.532;6.426;2023-03-14T01:07:51;98767.34;;;8.49;100.00
63006;BME280;53704;52.532;6.426;2023-03-14T01:10:16;98765.69;;;8.48;100.00
63006;BME280;53704;52.532;6.426;2023-03-14T01:12:42;98768.97;;;8.44;100.00
63006;BME280;53704;52.532;6.426;2023-03-14T01:15:08;98763.16;;;8.40;100.00
63006;BME280;53704;52.532;6.426;2023-03-14T01:17:34;98766.91;;;8.46;100.00
63006;BME280;53704;52.532;6.426;2023-03-14T01:20:00;98760.13;;;8.50;100.00
63006;BME280;53704;52.532;6.426;2023-03-14T01:22:26;98767.34;;;8.49;100.00
63006;BME280;53704;52.532;6.426;2023-03-14T01:24:51;98764.59;;;8.43;100.00
63006;BME280;53704;52.532;6.426;2023-03-14T01:27:16;98757.97;;;8.39;100.00
63006;BME280;53704;52.532;6.426;2023-03-14T01:29:42;98751.00;;;8.44;100.00
63006;BME280;53704;52.532;6.426;2023-03-14T01:32:07;98763.81;;;8.49;100.00
63006;BME280;53704;52.532;6.426;2023-03-14T01:34:33;98760.13;;;8.50;100.00
63006;BME280;53704;52.532;6.426;2023-03-14T01:36:58;98771.84;;;8.49;100.00
63006;BME280;53704;52.532;6.426;2023-03-14T01:39:23;98771.25;;;8.54;100.00
63006;BME280;53704;52.532;6.426;2023-03-14T01:41:49;98759.91;;;8.45;100.00
63006;BME280;53704;52.532;6.426;2023-03-14T01:44:14;98765.88;;;8.47;100.00
63006;BME280;53704;52.532;6.426;2023-03-14T01:46:41;98762.78;;;8.50;100.00
63006;BME280;53704;52.532;6.426;2023-03-14T01:54:23;98753.94;;;8.49;100.00
63006;BME280;53704;52.532;6.426;2023-03-14T01:56:55;98755.97;;;8.47;100.00
63006;BME280;53704;52.532;6.426;2023-03-14T01:59:22;98751.59;;;8.40;100.00
63006;BME280;53704;52.532;6.426;2023-03-14T02:01:50;98741.31;;;8.43;100.00
63006;BME280;53704;52.532;6.426;2023-03-14T02:04:17;98739.00;;;8.40;100.00
63006;BME280;53704;52.532;6.426;2023-03-14T02:09:24;98740.03;;;8.39;100.00
63006;BME280;53704;52.532;6.426;2023-03-14T02:11:50;98738.78;;;8.35;100.00
63006;BME280;53704;52.532;6.426;2023-03-14T02:14:28;98737.31;;;8.26;100.00
63006;BME280;53704;52.532;6.426;2023-03-14T02:16:55;98740.81;;;8.26;100.00
63006;BME280;53704;52.532;6.426;2023-03-14T02:19:28;98746.16;;;8.26;100.00
63006;BME280;53704;52.532;6.426;2023-03-14T02:22:04;98743.28;;;8.21;100.00
63006;BME280;53704;52.532;6.426;2023-03-14T02:27:15;98744.84;;;8.09;100.00
63006;BME280;53704;52.532;6.426;2023-03-14T02:29:48;98751.91;;;8.17;100.00
63006;BME280;53704;52.532;6.426;2023-03-14T02:32:15;98754.78;;;8.15;100.00
63006;BME280;53704;52.532;6.426;2023-03-14T02:34:43;98756.44;;;8.16;100.00
63006;BME280;53704;52.532;6.426;2023-03-14T02:37:12;98750.84;;;8.11;100.00
63006;BME280;53704;52.532;6.426;2023-03-14T02:39:41;98756.78;;;8.06;100.00
63006;BME280;53704;52.532;6.426;2023-03-14T02:42:09;98759.94;;;8.10;100.00
63006;BME280;53704;52.532;6.426;2023-03-14T02:44:35;98760.38;;;8.20;100.00
63006;BME280;53704;52.532;6.426;2023-03-14T02:47:02;98751.81;;;8.03;100.00
63006;BME280;53704;52.532;6.426;2023-03-14T02:49:30;98752.19;;;7.93;100.00
63006;BME280;53704;52.532;6.426;2023-03-14T02:51:57;98737.75;;;7.88;100.00
63006;BME280;53704;52.532;6.426;2023-03-14T02:54:22;98742.03;;;7.82;100.00
63006;BME280;53704;52.532;6.426;2023-03-14T02:56:47;98746.00;;;7.86;100.00
63006;BME280;53704;52.532;6.426;2023-03-14T02:59:13;98748.84;;;7.85;100.00
63006;BME280;53704;52.532;6.426;2023-03-14T03:01:38;98741.63;;;7.85;100.00
63006;BME280;53704;52.532;6.426;2023-03-14T03:04:04;98736.91;;;7.87;100.00
63006;BME280;53704;52.532;6.426;2023-03-14T03:06:29;98740.38;;;7.81;100.00
63006;BME280;53704;52.532;6.426;2023-03-14T03:08:55;98747.59;;;7.81;100.00
63006;BME280;53704;52.532;6.426;2023-03-14T03:11:20;98744.91;;;7.81;100.00
63006;BME280;53704;52.532;6.426;2023-03-14T03:13:46;98737.28;;;7.84;100.00
63006;BME280;53704;52.532;6.426;2023-03-14T03:16:11;98745.34;;;7.84;100.00
63006;BME280;53704;52.532;6.426;2023-03-14T03:18:38;98742.03;;;7.82;100.00
63006;BME280;53704;52.532;6.426;2023-03-14T03:21:04;98745.81;;;7.94;100.00
63006;BME280;53704;52.532;6.426;2023-03-14T03:23:30;98735.66;;;7.83;100.00
63006;BME280;53704;52.532;6.426;2023-03-14T03:25:56;98738.19;;;7.91;100.00
63006;BME280;53704;52.532;6.426;2023-03-14T03:28:21;98738.16;;;7.85;100.00
63006;BME280;53704;52.532;6.426;2023-03-14T03:30:47;98736.47;;;7.84;100.00
63006;BME280;53704;52.532;6.426;2023-03-14T03:33:12;98727.81;;;7.82;100.00
63006;BME280;53704;52.532;6.426;2023-03-14T03:35:45;98729.25;;;7.84;100.00
63006;BME280;53704;52.532;6.426;2023-03-14T03:38:11;98728.63;;;7.82;100.00
63006;BME280;53704;52.532;6.426;2023-03-14T03:40:37;98728.41;;;7.77;100.00
63006;BME280;53704;52.532;6.426;2023-03-14T03:43:02;98727.41;;;7.78;100.00
63006;BME280;53704;52.532;6.426;2023-03-14T03:45:29;98728.03;;;7.80;100.00
63006;BME280;53704;52.532;6.426;2023-03-14T03:47:58;98729.25;;;7.84;100.00
63006;BME280;53704;52.532;6.426;2023-03-14T03:50:24;98727.06;;;7.94;100.00
63006;BME280;53704;52.532;6.426;2023-03-14T03:52:49;98719.59;;;7.83;100.00
63006;BME280;53704;52.532;6.426;2023-03-14T03:55:14;98724.94;;;7.83;100.00
63006;BME280;53704;52.532;6.426;2023-03-14T03:57:40;98711.38;;;7.91;100.00
63006;BME280;53704;52.532;6.426;2023-03-14T04:00:06;98718.16;;;7.87;100.00
63006;BME280;53704;52.532;6.426;2023-03-14T04:02:34;98719.00;;;7.88;100.00
63006;BME280;53704;52.532;6.426;2023-03-14T04:04:59;98717.72;;;7.84;100.00
63006;BME280;53704;52.532;6.426;2023-03-14T04:07:25;98729.72;;;7.88;100.00
63006;BME280;53704;52.532;6.426;2023-03-14T04:09:50;98725.78;;;7.90;100.00
63006;BME280;53704;52.532;6.426;2023-03-14T04:12:15;98729.91;;;7.86;100.00
63006;BME280;53704;52.532;6.426;2023-03-14T04:14:41;98718.94;;;7.81;100.00
63006;BME280;53704;52.532;6.426;2023-03-14T04:17:07;98727.59;;;7.76;100.00
63006;BME280;53704;52.532;6.426;2023-03-14T04:19:33;98719.22;;;7.93;100.00
63006;BME280;53704;52.532;6.426;2023-03-14T04:21:58;98715.88;;;7.84;100.00
63006;BME280;53704;52.532;6.426;2023-03-14T04:24:24;98714.66;;;7.87;100.00
63006;BME280;53704;52.532;6.426;2023-03-14T04:26:49;98718.00;;;7.95;100.00
63006;BME280;53704;52.532;6.426;2023-03-14T04:29:15;98722.09;;;7.91;100.00
63006;BME280;53704;52.532;6.426;2023-03-14T04:31:40;98728.25;;;7.85;100.00
63006;BME280;53704;52.532;6.426;2023-03-14T04:34:05;98717.53;;;7.85;100.00
63006;BME280;53704;52.532;6.426;2023-03-14T04:36:31;98720.81;;;7.87;100.00
63006;BME280;53704;52.532;6.426;2023-03-14T04:38:56;98718.53;;;7.84;100.00
63006;BME280;53704;52.532;6.426;2023-03-14T04:41:22;98709.72;;;7.90;100.00
63006;BME280;53704;52.532;6.426;2023-03-14T04:43:47;98715.06;;;7.90;100.00
63006;BME280;53704;52.532;6.426;2023-03-14T04:46:13;98717.53;;;7.85;100.00
63006;BME280;53704;52.532;6.426;2023-03-14T04:48:38;98714.63;;;7.80;100.00
63006;BME280;53704;52.532;6.426;2023-03-14T04:51:04;98705.97;;;7.78;100.00
63006;BME280;53704;52.532;6.426;2023-03-14T04:53:29;98707.81;;;7.77;100.00
63006;BME280;53704;52.532;6.426;2023-03-14T04:55:55;98704.94;;;7.79;100.00
63006;BME280;53704;52.532;6.426;2023-03-14T04:58:21;98708.38;;;7.73;100.00
63006;BME280;53704;52.532;6.426;2023-03-14T05:00:47;98701.03;;;7.82;100.00
63006;BME280;53704;52.532;6.426;2023-03-14T05:03:17;98709.66;;;7.77;100.00
63006;BME280;53704;52.532;6.426;2023-03-14T05:05:43;98707.84;;;7.84;100.00
63006;BME280;53704;52.532;6.426;2023-03-14T05:08:09;98708.88;;;7.83;100.00
63006;BME280;53704;52.532;6.426;2023-03-14T05:10:34;98706.41;;;7.82;100.00
63006;BME280;53704;52.532;6.426;2023-03-14T05:12:59;98691.22;;;7.95;100.00
63006;BME280;53704;52.532;6.426;2023-03-14T05:15:25;98698.59;;;7.93;100.00
63006;BME280;53704;52.532;6.426;2023-03-14T05:17:50;98692.97;;;7.75;100.00
63006;BME280;53704;52.532;6.426;2023-03-14T05:20:16;98692.34;;;7.79;100.00
63006;BME280;53704;52.532;6.426;2023-03-14T05:22:42;98681.50;;;7.88;100.00
63006;BME280;53704;52.532;6.426;2023-03-14T05:25:08;98678.56;;;7.83;100.00
63006;BME280;53704;52.532;6.426;2023-03-14T05:27:34;98668.47;;;7.78;100.00
63006;BME280;53704;52.532;6.426;2023-03-14T05:30:00;98673.25;;;7.89;100.00
63006;BME280;53704;52.532;6.426;2023-03-14T05:32:25;98674.69;;;7.92;100.00
63006;BME280;53704;52.532;6.426;2023-03-14T05:34:51;98673.88;;;7.91;100.00
63006;BME280;53704;52.532;6.426;2023-03-14T05:37:16;98676.34;;;7.86;100.00
63006;BME280;53704;52.532;6.426;2023-03-14T05:39:42;98675.25;;;7.81;100.00
63006;BME280;53704;52.532;6.426;2023-03-14T05:42:07;98674.28;;;7.95;100.00
63006;BME280;53704;52.532;6.426;2023-03-14T05:44:32;98675.28;;;7.87;100.00
63006;BME280;53704;52.532;6.426;2023-03-14T05:46:58;98670.97;;;7.86;100.00
63006;BME280;53704;52.532;6.426;2023-03-14T05:49:23;98679.84;;;7.93;100.00
63006;BME280;53704;52.532;6.426;2023-03-14T05:51:49;98672.47;;;7.95;100.00
63006;BME280;53704;52.532;6.426;2023-03-14T05:54:14;98678.03;;;7.94;100.00
63006;BME280;53704;52.532;6.426;2023-03-14T05:56:39;98678.81;;;7.88;100.00
63006;BME280;53704;52.532;6.426;2023-03-14T05:59:05;98682.59;;;8.00;100.00
63006;BME280;53704;52.532;6.426;2023-03-14T06:01:32;98678.41;;;7.91;100.00
63006;BME280;53704;52.532;6.426;2023-03-14T06:03:58;98687.06;;;7.86;100.00
63006;BME280;53704;52.532;6.426;2023-03-14T06:06:23;98684.53;;;7.78;100.00
63006;BME280;53704;52.532;6.426;2023-03-14T06:08:48;98677.16;;;7.87;100.00
63006;BME280;53704;52.532;6.426;2023-03-14T06:11:14;98680.44;;;7.82;100.00
63006;BME280;53704;52.532;6.426;2023-03-14T06:13:39;98674.88;;;7.84;100.00
63006;BME280;53704;52.532;6.426;2023-03-14T06:16:05;98679.19;;;7.78;100.00
63006;BME280;53704;52.532;6.426;2023-03-14T06:18:31;98685.75;;;7.75;100.00
63006;BME280;53704;52.532;6.426;2023-03-14T06:20:57;98688.22;;;7.77;100.00
63006;BME280;53704;52.532;6.426;2023-03-14T06:23:22;98687.81;;;7.73;100.00
63006;BME280;53704;52.532;6.426;2023-03-14T06:25:48;98680.00;;;7.78;100.00
63006;BME280;53704;52.532;6.426;2023-03-14T06:28:13;98690.69;;;7.72;100.00
63006;BME280;53704;52.532;6.426;2023-03-14T06:30:39;98683.88;;;7.76;100.00
63006;BME280;53704;52.532;6.426;2023-03-14T06:33:04;98680.16;;;7.70;100.00
63006;BME280;53704;52.532;6.426;2023-03-14T06:35:30;98678.34;;;7.77;100.00
63006;BME280;53704;52.532;6.426;2023-03-14T06:37:55;98674.44;;;7.80;100.00
63006;BME280;53704;52.532;6.426;2023-03-14T06:40:21;98673.78;;;7.71;100.00
63006;BME280;53704;52.532;6.426;2023-03-14T06:42:46;98687.84;;;7.80;100.00
63006;BME280;53704;52.532;6.426;2023-03-14T06:45:13;98685.94;;;7.74;100.00
63006;BME280;53704;52.532;6.426;2023-03-14T06:47:38;98682.88;;;7.77;100.00
63006;BME280;53704;52.532;6.426;2023-03-14T06:50:06;98691.97;;;7.83;100.00
63006;BME280;53704;52.532;6.426;2023-03-14T06:52:31;98695.00;;;7.73;100.00
63006;BME280;53704;52.532;6.426;2023-03-14T06:54:57;98681.00;;;7.71;100.00
63006;BME280;53704;52.532;6.426;2023-03-14T06:57:23;98690.03;;;7.70;100.00
63006;BME280;53704;52.532;6.426;2023-03-14T06:59:48;98689.44;;;7.74;100.00
63006;BME280;53704;52.532;6.426;2023-03-14T07:02:14;98687.81;;;7.73;100.00
63006;BME280;53704;52.532;6.426;2023-03-14T07:04:39;98688.63;;;7.74;100.00
63006;BME280;53704;52.532;6.426;2023-03-14T07:07:05;98688.06;;;7.85;100.00
63006;BME280;53704;52.532;6.426;2023-03-14T07:09:32;98700.19;;;7.81;100.00
63006;BME280;53704;52.532;6.426;2023-03-14T07:11:58;98704.72;;;7.81;100.00
63006;BME280;53704;52.532;6.426;2023-03-14T07:14:23;98703.91;;;7.80;100.00
63006;BME280;53704;52.532;6.426;2023-03-14T07:16:49;98698.75;;;7.78;100.00
63006;BME280;53704;52.532;6.426;2023-03-14T07:19:14;98723.72;;;7.86;100.00
63006;BME280;53704;52.532;6.426;2023-03-14T07:21:39;98777.03;;;7.74;100.00
63006;BME280;53704;52.532;6.426;2023-03-14T07:24:05;98788.06;;;7.14;100.00
63006;BME280;53704;52.532;6.426;2023-03-14T07:26:31;98785.72;;;7.04;100.00
63006;BME280;53704;52.532;6.426;2023-03-14T07:28:56;98790.75;;;6.93;100.00
63006;BME280;53704;52.532;6.426;2023-03-14T07:31:22;98794.56;;;7.05;100.00
63006;BME280;53704;52.532;6.426;2023-03-14T07:33:47;98800.97;;;6.89;100.00
63006;BME280;53704;52.532;6.426;2023-03-14T07:36:13;98805.03;;;6.63;100.00
63006;BME280;53704;52.532;6.426;2023-03-14T07:38:38;98823.44;;;6.73;100.00
63006;BME280;53704;52.532;6.426;2023-03-14T07:41:05;98834.28;;;6.50;100.00
63006;BME280;53704;52.532;6.426;2023-03-14T07:43:31;98835.66;;;6.46;100.00
63006;BME280;53704;52.532;6.426;2023-03-14T07:45:58;98857.31;;;6.51;100.00
63006;BME280;53704;52.532;6.426;2023-03-14T07:48:23;98859.06;;;6.29;100.00
63006;BME280;53704;52.532;6.426;2023-03-14T07:50:54;98871.72;;;6.35;100.00
63006;BME280;53704;52.532;6.426;2023-03-14T07:53:20;98871.25;;;6.31;100.00
63006;BME280;53704;52.532;6.426;2023-03-14T07:55:47;98874.03;;;6.23;100.00
63006;BME280;53704;52.532;6.426;2023-03-14T07:58:14;98896.31;;;6.30;100.00
63006;BME280;53704;52.532;6.426;2023-03-14T08:00:40;98907.09;;;6.22;100.00
63006;BME280;53704;52.532;6.426;2023-03-14T08:03:05;98911.97;;;5.80;100.00
63006;BME280;53704;52.532;6.426;2023-03-14T08:05:34;98923.34;;;5.74;100.00
63006;BME280;53704;52.532;6.426;2023-03-14T08:08:00;98932.38;;;5.50;100.00
63006;BME280;53704;52.532;6.426;2023-03-14T08:10:26;98943.78;;;5.44;100.00
63006;BME280;53704;52.532;6.426;2023-03-14T08:12:55;98951.97;;;5.42;100.00
63006;BME280;53704;52.532;6.426;2023-03-14T08:15:22;98965.88;;;5.53;100.00
63006;BME280;53704;52.532;6.426;2023-03-14T08:17:48;98984.19;;;5.33;100.00
63006;BME280;53704;52.532;6.426;2023-03-14T08:20:19;98988.06;;;4.91;100.00
63006;BME280;53704;52.532;6.426;2023-03-14T08:22:45;99006.28;;;4.62;100.00
63006;BME280;53704;52.532;6.426;2023-03-14T08:25:10;99018.78;;;4.53;100.00
63006;BME280;53704;52.532;6.426;2023-03-14T08:27:36;99039.31;;;4.37;100.00
63006;BME280;53704;52.532;6.426;2023-03-14T08:30:10;99063.63;;;4.33;100.00
63006;BME280;53704;52.532;6.426;2023-03-14T08:32:36;99078.06;;;4.06;100.00
63006;BME280;53704;52.532;6.426;2023-03-14T08:35:03;99085.56;;;3.86;100.00
63006;BME280;53704;52.532;6.426;2023-03-14T08:37:28;99106.88;;;3.94;100.00
63006;BME280;53704;52.532;6.426;2023-03-14T08:39:54;99105.81;;;3.79;100.00
63006;BME280;53704;52.532;6.426;2023-03-14T08:42:19;99124.59;;;3.69;100.00
63006;BME280;53704;52.532;6.426;2023-03-14T08:44:44;99134.03;;;3.63;100.00
63006;BME280;53704;52.532;6.426;2023-03-14T08:47:10;99150.50;;;3.59;100.00
63006;BME280;53704;52.532;6.426;2023-03-14T08:49:39;99156.31;;;3.54;100.00
63006;BME280;53704;52.532;6.426;2023-03-14T08:52:04;99166.34;;;3.69;100.00
63006;BME280;53704;52.532;6.426;2023-03-14T08:54:31;99172.31;;;3.62;100.00
63006;BME280;53704;52.532;6.426;2023-03-14T08:56:57;99189.13;;;3.71;100.00
63006;BME280;53704;52.532;6.426;2023-03-14T08:59:23;99189.44;;;3.60;100.00
63006;BME280;53704;52.532;6.426;2023-03-14T09:01:49;99199.94;;;3.70;100.00
63006;BME280;53704;52.532;6.426;2023-03-14T09:04:14;99209.91;;;3.68;100.00
63006;BME280;53704;52.532;6.426;2023-03-14T09:06:40;99223.84;;;3.61;100.00
63006;BME280;53704;52.532;6.426;2023-03-14T09:09:05;99228.25;;;3.71;100.00
63006;BME280;53704;52.532;6.426;2023-03-14T09:11:31;99236.59;;;3.84;100.00
63006;BME280;53704;52.532;6.426;2023-03-14T09:13:57;99247.22;;;3.76;100.00
63006;BME280;53704;52.532;6.426;2023-03-14T09:16:22;99261.09;;;3.88;100.00
63006;BME280;53704;52.532;6.426;2023-03-14T09:18:48;99257.69;;;4.04;100.00
63006;BME280;53704;52.532;6.426;2023-03-14T09:21:13;99279.66;;;4.14;100.00
63006;BME280;53704;52.532;6.426;2023-03-14T09:23:39;99293.94;;;4.05;100.00
63006;BME280;53704;52.532;6.426;2023-03-14T09:26:05;99292.78;;;4.07;100.00
63006;BME280;53704;52.532;6.426;2023-03-14T09:28:31;99308.75;;;3.99;100.00
63006;BME280;53704;52.532;6.426;2023-03-14T09:30:57;99321.38;;;3.97;100.00
63006;BME280;53704;52.532;6.426;2023-03-14T09:33:23;99338.59;;;4.11;100.00
63006;BME280;53704;52.532;6.426;2023-03-14T09:35:48;99347.28;;;4.13;100.00
63006;BME280;53704;52.532;6.426;2023-03-14T09:38:14;99365.06;;;4.12;100.00
63006;BME280;53704;52.532;6.426;2023-03-14T09:40:40;99367.59;;;4.22;100.00
63006;BME280;53704;52.532;6.426;2023-03-14T09:43:10;99364.91;;;4.14;100.00
63006;BME280;53704;52.532;6.426;2023-03-14T09:45:39;99382.78;;;4.30;100.00
63006;BME280;53704;52.532;6.426;2023-03-14T09:48:08;99373.38;;;4.44;100.00
63006;BME280;53704;52.532;6.426;2023-03-14T09:50:48;99394.38;;;4.47;100.00
63006;BME280;53704;52.532;6.426;2023-03-14T09:53:19;99392.94;;;4.61;100.00
63006;BME280;53704;52.532;6.426;2023-03-14T09:55:49;99395.94;;;4.58;100.00
63006;BME280;53704;52.532;6.426;2023-03-14T09:58:21;99400.31;;;4.67;100.00
63006;BME280;53704;52.532;6.426;2023-03-14T10:00:47;99405.66;;;4.75;100.00
63006;BME280;53704;52.532;6.426;2023-03-14T10:03:31;99410.38;;;4.98;100.00
63006;BME280;53704;52.532;6.426;2023-03-14T10:05:57;99415.88;;;4.96;100.00
63006;BME280;53704;52.532;6.426;2023-03-14T10:08:23;99430.41;;;5.02;100.00
63006;BME280;53704;52.532;6.426;2023-03-14T10:10:48;99435.94;;;5.08;100.00
63006;BME280;53704;52.532;6.426;2023-03-14T10:13:23;99447.81;;;5.22;100.00
63006;BME280;53704;52.532;6.426;2023-03-14T10:16:00;99463.25;;;5.11;100.00
63006;BME280;53704;52.532;6.426;2023-03-14T10:18:28;99465.81;;;5.20;100.00
63006;BME280;53704;52.532;6.426;2023-03-14T10:21:04;99473.91;;;5.02;100.00
63006;BME280;53704;52.532;6.426;2023-03-14T10:23:32;99489.75;;;4.69;100.00
63006;BME280;53704;52.532;6.426;2023-03-14T10:26:05;99504.09;;;4.68;100.00
63006;BME280;53704;52.532;6.426;2023-03-14T10:28:34;99505.81;;;4.78;100.00
63006;BME280;53704;52.532;6.426;2023-03-14T10:31:02;99518.56;;;4.92;100.00
63006;BME280;53704;52.532;6.426;2023-03-14T10:33:34;99528.28;;;5.01;100.00
63006;BME280;53704;52.532;6.426;2023-03-14T10:38:32;99552.63;;;5.06;100.00
63006;BME280;53704;52.532;6.426;2023-03-14T10:40:59;99558.53;;;4.84;100.00
63006;BME280;53704;52.532;6.426;2023-03-14T10:43:32;99565.16;;;4.80;100.00
63006;BME280;53704;52.532;6.426;2023-03-14T10:46:02;99578.22;;;4.91;100.00
63006;BME280;53704;52.532;6.426;2023-03-14T10:48:33;99592.13;;;4.77;100.00
63006;BME280;53704;52.532;6.426;2023-03-14T10:53:25;99607.59;;;4.99;100.00
63006;BME280;53704;52.532;6.426;2023-03-14T10:55:51;99623.88;;;5.14;100.00
63006;BME280;53704;52.532;6.426;2023-03-14T10:58:28;99632.78;;;5.31;100.00
63006;BME280;53704;52.532;6.426;2023-03-14T11:03:36;99648.19;;;4.85;100.00
63006;BME280;53704;52.532;6.426;2023-03-14T11:06:24;99667.28;;;4.98;100.00
63006;BME280;53704;52.532;6.426;2023-03-14T11:08:57;99673.44;;;4.99;100.00
63006;BME280;53704;52.532;6.426;2023-03-14T11:11:31;99692.63;;;5.02;100.00
63006;BME280;53704;52.532;6.426;2023-03-14T11:14:26;99690.84;;;5.37;100.00
63006;BME280;53704;52.532;6.426;2023-03-14T11:19:36;99710.44;;;5.80;100.00
63006;BME280;53704;52.532;6.426;2023-03-14T11:27:50;99752.81;;;5.75;100.00
63006;BME280;53704;52.532;6.426;2023-03-14T11:30:42;99743.03;;;5.58;100.00
63006;BME280;53704;52.532;6.426;2023-03-14T11:33:15;99754.53;;;5.85;100.00
63006;BME280;53704;52.532;6.426;2023-03-14T11:40:59;99790.91;;;5.77;100.00
63006;BME280;53704;52.532;6.426;2023-03-14T11:45:54;99814.41;;;6.00;100.00
63006;BME280;53704;52.532;6.426;2023-03-14T11:51:34;99803.91;;;6.41;100.00
63006;BME280;53704;52.532;6.426;2023-03-14T11:56:37;99815.47;;;6.50;100.00
63006;BME280;53704;52.532;6.426;2023-03-14T11:59:21;99819.53;;;6.70;100.00
63006;BME280;53704;52.532;6.426;2023-03-14T12:02:03;99841.78;;;6.79;100.00
63006;BME280;53704;52.532;6.426;2023-03-14T12:04:51;99836.88;;;6.50;93.82
63006;BME280;53704;52.532;6.426;2023-03-14T12:07:21;99850.78;;;6.78;86.14
63006;BME280;53704;52.532;6.426;2023-03-14T12:09:50;99856.53;;;6.92;85.23
63006;BME280;53704;52.532;6.426;2023-03-14T12:12:22;99870.97;;;7.40;89.50
63006;BME280;53704;52.532;6.426;2023-03-14T12:14:57;99877.28;;;6.98;87.08
63006;BME280;53704;52.532;6.426;2023-03-14T12:17:38;99872.88;;;6.72;88.49
63006;BME280;53704;52.532;6.426;2023-03-14T12:27:43;99922.97;;;6.01;90.14
63006;BME280;53704;52.532;6.426;2023-03-14T12:35:42;99927.38;;;6.79;90.38
63006;BME280;53704;52.532;6.426;2023-03-14T12:46:53;99958.09;;;7.18;78.05
63006;BME280;53704;52.532;6.426;2023-03-14T12:49:19;99948.44;;;6.74;75.47
63006;BME280;53704;52.532;6.426;2023-03-14T12:51:45;99971.81;;;6.38;74.20
63006;BME280;53704;52.532;6.426;2023-03-14T12:57:19;99974.72;;;6.00;76.77
63006;BME280;53704;52.532;6.426;2023-03-14T12:59:57;99972.72;;;6.55;77.08
63006;BME280;53704;52.532;6.426;2023-03-14T13:02:42;99991.94;;;6.24;75.04
63006;BME280;53704;52.532;6.426;2023-03-14T13:05:14;100000.59;;;6.00;75.37
63006;BME280;53704;52.532;6.426;2023-03-14T13:10:23;100005.13;;;6.78;75.97
63006;BME280;53704;52.532;6.426;2023-03-14T13:15:18;100014.81;;;6.70;78.86
63006;BME280;53704;52.532;6.426;2023-03-14T13:17:47;100012.63;;;7.09;83.75
63006;BME280;53704;52.532;6.426;2023-03-14T13:20:18;100037.97;;;6.88;80.33
63006;BME280;53704;52.532;6.426;2023-03-14T13:22:47;100029.22;;;6.86;83.92
63006;BME280;53704;52.532;6.426;2023-03-14T13:25:13;100039.84;;;6.43;85.01
63006;BME280;53704;52.532;6.426;2023-03-14T13:27:40;100055.88;;;6.43;83.78
63006;BME280;53704;52.532;6.426;2023-03-14T13:30:22;100055.44;;;6.74;77.11
63006;BME280;53704;52.532;6.426;2023-03-14T13:32:49;100059.78;;;7.10;77.15
63006;BME280;53704;52.532;6.426;2023-03-14T13:35:28;100063.97;;;7.04;74.37
63006;BME280;53704;52.532;6.426;2023-03-14T13:37:59;100066.78;;;7.37;76.38
63006;BME280;53704;52.532;6.426;2023-03-14T13:40:30;100082.94;;;7.70;76.07
63006;BME280;53704;52.532;6.426;2023-03-14T13:43:33;100075.97;;;7.34;72.98
63006;BME280;53704;52.532;6.426;2023-03-14T13:46:10;100094.13;;;7.57;76.85
63006;BME280;53704;52.532;6.426;2023-03-14T13:48:44;100089.22;;;7.36;76.04
63006;BME280;53704;52.532;6.426;2023-03-14T13:51:12;100117.88;;;7.17;77.08
63006;BME280;53704;52.532;6.426;2023-03-14T13:56:14;100132.38;;;7.33;70.68
63006;BME280;53704;52.532;6.426;2023-03-14T13:58:40;100143.03;;;6.54;66.09
63006;BME280;53704;52.532;6.426;2023-03-14T14:03:39;100164.91;;;6.67;57.74
63006;BME280;53704;52.532;6.426;2023-03-14T14:06:10;100160.19;;;6.87;61.91
63006;BME280;53704;52.532;6.426;2023-03-14T14:08:41;100162.56;;;7.17;63.36
63006;BME280;53704;52.532;6.426;2023-03-14T14:11:25;100179.22;;;6.84;62.40
63006;BME280;53704;52.532;6.426;2023-03-14T14:13:53;100195.63;;;6.63;59.51
63006;BME280;53704;52.532;6.426;2023-03-14T14:16:23;100187.66;;;7.16;62.18
63006;BME280;53704;52.532;6.426;2023-03-14T14:18:50;100202.28;;;7.56;62.24